Time;durP1;ratioP1;P1;durP2;ratioP2;P2;SDS_P1;SDS_P2;PMS_P1;PMS_P2;Temp;Humidity;BMP_temperature;BMP_pressure;BME280_temperature;BME280_humidity;BME280_pressure;Samples;Min_cycle;Max_cycle;Signal;HPM_P1;HPM_P2
2024/04/03 04:03:03;;;;;;;1.43;1.43;;;9.20;97.30;;;;;;4929903;29;20487;-64
2024/04/03 04:05:28;;;;;;;0.90;0.80;;;9.10;97.30;;;;;;4930029;29;20431;-64
2024/04/03 04:07:54;;;;;;;0.90;0.80;;;9.10;97.30;;;;;;4929148;29;20298;-65
2024/04/03 04:10:19;;;;;;;1.50;1.40;;;9.10;97.30;;;;;;4931327;29;20266;-65
2024/04/03 04:12:45;;;;;;;1.20;1.10;;;9.10;97.30;;;;;;4918169;29;20279;-65
2024/04/03 04:15:10;;;;;;;2.60;2.10;;;9.10;97.30;;;;;;4922887;29;20188;-65
2024/04/03 04:17:36;;;;;;;1.10;1.00;;;9.10;97.30;;;;;;4930854;29;20672;-64
2024/04/03 04:20:06;;;;;;;1.00;0.90;;;9.00;97.30;;;;;;4930842;29;20317;-65
2024/04/03 04:22:32;;;;;;;1.00;0.90;;;9.00;97.30;;;;;;4919498;29;20185;-64
2024/04/03 04:24:58;;;;;;;1.00;0.90;;;9.10;97.30;;;;;;4927643;29;20947;-64
2024/04/03 04:27:25;;;;;;;1.00;0.90;;;9.00;97.30;;;;;;4928460;29;20645;-64
2024/04/03 04:29:51;;;;;;;1.00;0.90;;;9.00;97.30;;;;;;4919256;29;20194;-65
2024/04/03 04:32:16;;;;;;;1.30;1.20;;;9.00;97.30;;;;;;4931114;29;20447;-65
2024/04/03 04:34:42;;;;;;;9.13;1.30;;;9.00;97.30;;;;;;4927016;29;20284;-65
2024/04/03 04:37:08;;;;;;;1.00;0.90;;;9.00;97.30;;;;;;4911303;29;20219;-65
2024/04/03 04:39:34;;;;;;;1.53;1.40;;;9.00;97.30;;;;;;4919208;29;20944;-65
2024/04/03 04:42:00;;;;;;;1.00;0.90;;;9.00;97.30;;;;;;4924455;29;20561;-64
2024/04/03 04:44:26;;;;;;;1.07;1.00;;;8.90;97.30;;;;;;4930030;29;20439;-64
2024/04/03 04:46:53;;;;;;;1.70;1.53;;;8.90;97.30;;;;;;4930343;29;20216;-64
2024/04/03 04:49:22;;;;;;;6.07;1.03;;;8.90;97.30;;;;;;4927657;29;20302;-65
2024/04/03 04:51:47;;;;;;;1.00;0.90;;;8.90;97.30;;;;;;4919022;29;20457;-65
2024/04/03 04:54:17;;;;;;;0.90;0.80;;;8.90;97.30;;;;;;4928361;29;21002;-64
2024/04/03 04:56:46;;;;;;;1.03;0.93;;;9.00;97.30;;;;;;4931466;29;20191;-64
2024/04/03 04:59:13;;;;;;;1.43;1.33;;;9.00;97.30;;;;;;4915737;29;20447;-64
2024/04/03 05:01:39;;;;;;;1.00;0.90;;;9.00;97.30;;;;;;4926653;29;20503;-64
2024/04/03 05:04:05;;;;;;;0.90;0.80;;;9.00;97.30;;;;;;4924427;29;20941;-64
2024/04/03 05:06:32;;;;;;;1.00;0.90;;;9.00;97.30;;;;;;4919053;29;20437;-64
2024/04/03 05:08:57;;;;;;;1.10;1.00;;;8.90;97.30;;;;;;4910764;29;20534;-64
2024/04/03 05:11:23;;;;;;;1.10;1.00;;;8.90;97.30;;;;;;4927509;29;20451;-64
2024/04/03 05:13:49;;;;;;;1.00;0.90;;;8.90;97.30;;;;;;4931150;29;20184;-64
2024/04/03 05:16:19;;;;;;;1.00;0.90;;;8.90;97.30;;;;;;4929888;29;20481;-64
2024/04/03 05:18:44;;;;;;;1.03;0.93;;;8.90;97.30;;;;;;4929821;29;20958;-64
2024/04/03 05:21:11;;;;;;;1.30;1.20;;;8.90;97.30;;;;;;4922042;29;20459;-64
2024/04/03 05:23:37;;;;;;;1.10;1.00;;;8.90;97.30;;;;;;4929871;29;20194;-64
2024/04/03 05:26:07;;;;;;;1.00;0.90;;;8.90;97.30;;;;;;4921431;29;20423;-64
2024/04/03 05:28:35;;;;;;;1.00;0.90;;;8.90;97.30;;;;;;4929099;29;20435;-64
2024/04/03 05:31:06;;;;;;;1.63;1.53;;;9.00;97.30;;;;;;4931305;29;20463;-64
2024/04/03 05:33:36;;;;;;;1.03;0.93;;;9.00;97.30;;;;;;4918632;29;20511;-65
2024/04/03 05:36:04;;;;;;;1.00;0.90;;;8.90;97.30;;;;;;4938312;29;20444;-65
2024/04/03 05:38:30;;;;;;;7.03;1.77;;;9.00;97.30;;;;;;4923609;29;20883;-64
2024/04/03 05:40:56;;;;;;;5.23;2.40;;;9.00;97.30;;;;;;4928999;29;20455;-64
2024/04/03 05:43:23;;;;;;;1.10;1.00;;;9.10;97.30;;;;;;4929075;29;20563;-64
2024/04/03 05:45:56;;;;;;;1.30;1.20;;;9.10;97.30;;;;;;4930273;29;20946;-64
2024/04/03 05:48:23;;;;;;;27.33;1.50;;;9.20;97.30;;;;;;4927293;29;20529;-64
2024/04/03 05:51:02;;;;;;;1.40;1.30;;;9.20;97.30;;;;;;4928351;29;20455;-64
2024/04/03 05:53:28;;;;;;;0.90;0.80;;;9.30;97.30;;;;;;4928753;29;20490;-64
2024/04/03 05:55:55;;;;;;;1.13;1.03;;;9.40;97.30;;;;;;4930820;29;20428;-64
2024/04/03 05:58:20;;;;;;;0.90;0.80;;;9.40;97.30;;;;;;4929261;29;20427;-64
2024/04/03 06:00:54;;;;;;;5.40;1.77;;;9.50;97.30;;;;;;4926768;29;20475;-64
2024/04/03 06:03:20;;;;;;;1.00;0.90;;;9.50;97.30;;;;;;4930071;29;20196;-64
2024/04/03 06:05:50;;;;;;;1.20;1.10;;;9.60;97.30;;;;;;4931432;29;20434;-64
2024/04/03 06:08:16;;;;;;;0.80;0.70;;;9.60;97.30;;;;;;4922041;29;20856;-64
2024/04/03 06:10:41;;;;;;;1.07;0.97;;;9.60;97.30;;;;;;4922949;29;20609;-64
2024/04/03 06:13:07;;;;;;;1.00;0.90;;;9.70;97.30;;;;;;4928955;29;20191;-65
2024/04/03 06:15:33;;;;;;;0.80;0.70;;;9.80;97.30;;;;;;4916002;29;20177;-65
2024/04/03 06:17:59;;;;;;;1.53;1.27;;;9.90;97.30;;;;;;4915808;29;20203;-65
2024/04/03 06:20:24;;;;;;;0.90;0.80;;;10.00;97.30;;;;;;4928580;29;20451;-65
2024/04/03 06:22:52;;;;;;;6.13;1.47;;;10.10;97.30;;;;;;4927447;29;20553;-65
2024/04/03 06:25:18;;;;;;;13.83;3.50;;;10.30;97.30;;;;;;4928598;29;20294;-65
2024/04/03 06:27:44;;;;;;;0.80;0.70;;;10.30;97.30;;;;;;4929292;29;20475;-65
2024/04/03 06:30:10;;;;;;;0.80;0.80;;;10.40;97.30;;;;;;4929188;29;20424;-65
2024/04/03 06:32:36;;;;;;;1.53;1.43;;;10.50;97.30;;;;;;4925909;29;20802;-64
2024/04/03 06:35:01;;;;;;;0.90;0.80;;;10.40;97.30;;;;;;4932598;29;20430;-64
2024/04/03 06:37:27;;;;;;;0.90;0.80;;;10.40;97.30;;;;;;4923496;29;20193;-66
2024/04/03 06:39:52;;;;;;;1.27;0.90;;;10.40;97.30;;;;;;4919563;29;20184;-64
2024/04/03 06:42:18;;;;;;;1.07;0.97;;;10.50;97.30;;;;;;4923251;29;20689;-64
2024/04/03 06:44:43;;;;;;;1.17;0.93;;;10.50;97.30;;;;;;4932676;29;20277;-64
2024/04/03 06:47:09;;;;;;;7.63;1.53;;;10.60;97.30;;;;;;4918307;29;20185;-65
2024/04/03 06:49:34;;;;;;;1.07;1.03;;;10.60;97.30;;;;;;4932376;29;20263;-65
2024/04/03 06:52:00;;;;;;;0.90;0.80;;;10.70;97.30;;;;;;4925285;29;20267;-65
2024/04/03 06:54:26;;;;;;;0.90;0.80;;;10.60;97.30;;;;;;4933110;29;20202;-65
2024/04/03 06:56:52;;;;;;;1.43;1.03;;;10.60;97.30;;;;;;4933808;29;20506;-64
2024/04/03 06:59:17;;;;;;;0.80;0.70;;;10.50;97.30;;;;;;4931415;29;20735;-65
2024/04/03 07:01:43;;;;;;;0.90;0.80;;;10.50;97.30;;;;;;4921095;29;20243;-65
2024/04/03 07:04:08;;;;;;;1.00;0.93;;;10.50;97.30;;;;;;4922708;29;20191;-66
2024/04/03 07:06:34;;;;;;;3.13;1.40;;;10.60;97.30;;;;;;4919942;29;20184;-65
2024/04/03 07:08:59;;;;;;;2.60;2.07;;;10.60;97.30;;;;;;4931274;29;20297;-65
2024/04/03 07:11:25;;;;;;;1.33;1.23;;;10.60;97.30;;;;;;4929118;29;20227;-65
2024/04/03 07:13:52;;;;;;;0.97;0.87;;;10.70;97.30;;;;;;4932693;29;20376;-65
2024/04/03 07:16:17;;;;;;;1.90;1.07;;;10.80;97.30;;;;;;4929850;29;20435;-65
2024/04/03 07:18:44;;;;;;;1.20;1.10;;;11.00;97.30;;;;;;4928607;29;20430;-67
2024/04/03 07:21:09;;;;;;;1.77;1.60;;;11.00;97.30;;;;;;4921506;29;20734;-66
2024/04/03 07:23:35;;;;;;;0.90;0.80;;;11.10;97.30;;;;;;4925846;29;20431;-66
2024/04/03 07:26:00;;;;;;;1.10;1.00;;;11.10;97.30;;;;;;4932964;29;20607;-66
2024/04/03 07:28:28;;;;;;;0.70;0.70;;;11.20;97.30;;;;;;4922286;29;20219;-66
2024/04/03 07:30:54;;;;;;;1.00;0.90;;;11.30;97.30;;;;;;4931677;29;20216;-67
2024/04/03 07:33:20;;;;;;;0.83;0.77;;;11.30;97.30;;;;;;4930401;29;20446;-67
2024/04/03 07:35:46;;;;;;;1.10;0.93;;;11.40;97.30;;;;;;4921811;29;20423;-67
2024/04/03 07:38:11;;;;;;;0.90;0.80;;;11.50;97.30;;;;;;4927528;29;20436;-67
2024/04/03 07:40:37;;;;;;;2.20;0.90;;;11.60;97.30;;;;;;4917088;29;20239;-67
2024/04/03 07:43:03;;;;;;;0.90;0.80;;;11.70;97.30;;;;;;4919306;29;20239;-65
2024/04/03 07:45:29;;;;;;;12.20;1.20;;;11.80;97.30;;;;;;4922560;29;20195;-65
2024/04/03 07:47:54;;;;;;;0.93;0.90;;;11.80;97.30;;;;;;4927545;29;20468;-65
2024/04/03 07:50:20;;;;;;;0.90;0.80;;;12.00;97.30;;;;;;4927070;29;20180;-65
2024/04/03 07:52:46;;;;;;;1.77;1.53;;;12.30;97.30;;;;;;4922034;29;20184;-65
2024/04/03 07:55:13;;;;;;;3.50;1.70;;;12.20;97.30;;;;;;4923798;29;20177;-65
2024/04/03 07:57:39;;;;;;;2.50;1.60;;;12.20;97.30;;;;;;4921536;29;20181;-65
2024/04/03 08:00:08;;;;;;;1.10;1.00;;;12.20;97.30;;;;;;4917493;29;20433;-64
2024/04/03 08:02:35;;;;;;;1.00;0.90;;;12.30;97.30;;;;;;4924774;29;20484;-65
2024/04/03 08:05:01;;;;;;;13.87;1.33;;;12.40;97.30;;;;;;4925389;29;20524;-65
2024/04/03 08:07:28;;;;;;;2.97;0.90;;;12.50;97.30;;;;;;4922531;29;20519;-65
2024/04/03 08:09:54;;;;;;;0.90;0.80;;;12.60;97.30;;;;;;4922843;29;20202;-65
2024/04/03 08:12:20;;;;;;;0.90;0.80;;;12.60;97.30;;;;;;4931046;29;20531;-65
2024/04/03 08:14:45;;;;;;;1.67;1.13;;;12.50;97.30;;;;;;4930806;29;20703;-64
2024/04/03 08:17:11;;;;;;;1.20;0.80;;;12.60;97.30;;;;;;4932066;29;20416;-65
2024/04/03 08:19:36;;;;;;;1.37;1.27;;;12.70;97.30;;;;;;4923903;29;20191;-65
2024/04/03 08:22:02;;;;;;;1.57;1.47;;;12.70;97.30;;;;;;4925530;29;20276;-65
2024/04/03 08:24:27;;;;;;;0.90;0.80;;;12.60;97.30;;;;;;4931018;29;20656;-65
2024/04/03 08:26:55;;;;;;;1.17;1.07;;;12.60;97.30;;;;;;4930604;29;20229;-64
2024/04/03 08:29:22;;;;;;;0.90;0.80;;;12.70;97.30;;;;;;4929307;29;20647;-64
2024/04/03 08:31:48;;;;;;;1.23;1.10;;;12.80;97.30;;;;;;4924893;29;20444;-65
2024/04/03 08:34:14;;;;;;;1.90;1.47;;;12.80;97.30;;;;;;4923585;29;20491;-65
2024/04/03 08:36:40;;;;;;;1.00;0.90;;;12.80;97.30;;;;;;4930215;29;20436;-65
2024/04/03 08:39:06;;;;;;;0.80;0.70;;;12.70;97.30;;;;;;4917385;29;20275;-64
2024/04/03 08:41:34;;;;;;;0.83;0.80;;;12.70;97.30;;;;;;4929826;29;20643;-65
2024/04/03 08:43:59;;;;;;;1.10;1.00;;;12.80;97.30;;;;;;4929062;29;20467;-64
2024/04/03 08:46:29;;;;;;;1.47;1.00;;;12.90;97.30;;;;;;4929142;29;20519;-64
2024/04/03 08:48:56;;;;;;;1.00;0.90;;;12.90;97.30;;;;;;4930736;29;20483;-65
2024/04/03 08:51:25;;;;;;;0.70;0.70;;;12.90;97.30;;;;;;4930343;29;20435;-65
2024/04/03 08:53:59;;;;;;;1.13;1.03;;;12.90;97.30;;;;;;4928663;29;20427;-65
2024/04/03 08:56:24;;;;;;;2.70;1.87;;;12.90;97.30;;;;;;4927477;29;20439;-64
2024/04/03 08:58:51;;;;;;;1.23;1.00;;;12.90;97.30;;;;;;4918444;29;20436;-65
2024/04/03 09:01:16;;;;;;;1.17;1.17;;;12.90;97.30;;;;;;4928106;29;20243;-65
2024/04/03 09:03:43;;;;;;;3.50;1.27;;;13.10;97.30;;;;;;4928082;29;20427;-65
2024/04/03 09:06:08;;;;;;;2.10;1.23;;;13.30;97.30;;;;;;4931584;29;20191;-65
2024/04/03 09:08:42;;;;;;;0.90;0.80;;;13.40;97.30;;;;;;4924786;29;20550;-65
2024/04/03 09:11:07;;;;;;;0.87;0.77;;;13.50;97.30;;;;;;4930756;29;20328;-64
2024/04/03 09:13:33;;;;;;;0.80;0.70;;;13.60;97.30;;;;;;4927752;29;20501;-65
2024/04/03 09:16:00;;;;;;;0.90;0.80;;;13.70;97.30;;;;;;4926165;29;20198;-65
2024/04/03 09:18:25;;;;;;;0.93;0.83;;;13.80;97.30;;;;;;4928569;29;20211;-65
2024/04/03 09:20:52;;;;;;;1.03;0.97;;;13.90;97.30;;;;;;4925308;29;20455;-66
2024/04/03 09:23:18;;;;;;;3.03;1.10;;;13.90;97.30;;;;;;4928581;29;20195;-65
2024/04/03 09:25:44;;;;;;;0.80;0.80;;;13.80;97.30;;;;;;4923525;29;20999;-65
2024/04/03 09:28:11;;;;;;;1.00;0.90;;;13.90;97.30;;;;;;4922898;29;20208;-65
2024/04/03 09:30:46;;;;;;;1.00;0.90;;;13.90;97.30;;;;;;4929885;29;20586;-65
2024/04/03 09:33:12;;;;;;;0.77;0.73;;;13.90;97.30;;;;;;4922723;29;20423;-65
2024/04/03 09:35:43;;;;;;;0.87;0.87;;;14.00;97.30;;;;;;4930404;29;20434;-65
2024/04/03 09:38:13;;;;;;;0.77;0.70;;;14.00;97.30;;;;;;4928452;29;20242;-66
2024/04/03 09:40:40;;;;;;;1.00;0.90;;;14.10;97.30;;;;;;4930109;29;20447;-66
2024/04/03 09:43:07;;;;;;;1.13;1.03;;;14.00;97.30;;;;;;4929766;29;20440;-65
2024/04/03 09:45:34;;;;;;;1.20;1.10;;;13.90;97.30;;;;;;4922089;29;20436;-66
2024/04/03 09:48:02;;;;;;;0.80;0.80;;;13.90;97.30;;;;;;4919200;29;20995;-63
2024/04/03 09:50:40;;;;;;;2.50;1.63;;;13.90;97.30;;;;;;4922130;29;20451;-63
2024/04/03 09:53:24;;;;;;;1.43;1.33;;;13.80;97.30;;;;;;4929882;29;20799;-64
2024/04/03 09:55:52;;;;;;;0.77;0.73;;;13.70;97.30;;;;;;4923094;29;20463;-63
2024/04/03 09:58:26;;;;;;;8.30;1.63;;;13.90;97.30;;;;;;4929065;29;20528;-64
2024/04/03 10:00:56;;;;;;;17.23;2.43;;;13.80;97.30;;;;;;4924797;29;20442;-64
2024/04/03 10:03:29;;;;;;;0.80;0.80;;;13.80;97.30;;;;;;4928588;29;20696;-63
2024/04/03 10:05:59;;;;;;;1.00;0.90;;;13.70;97.30;;;;;;4932453;29;20463;-64
2024/04/03 10:08:35;;;;;;;0.93;0.90;;;13.50;97.30;;;;;;4932090;29;20467;-65
2024/04/03 10:11:08;;;;;;;1.40;1.30;;;13.40;97.30;;;;;;4931164;29;20510;-63
2024/04/03 10:13:35;;;;;;;1.33;1.23;;;13.40;97.30;;;;;;4929780;29;20421;-63
2024/04/03 10:16:14;;;;;;;1.20;1.00;;;13.40;97.30;;;;;;4931161;29;20428;-64
2024/04/03 10:18:47;;;;;;;1.77;0.90;;;13.40;97.30;;;;;;4931256;29;20416;-63
2024/04/03 10:21:13;;;;;;;1.00;0.90;;;13.20;97.30;;;;;;4933231;29;20488;-64
2024/04/03 10:23:42;;;;;;;0.83;0.73;;;13.20;97.30;;;;;;4991838;23;20509;-85
2024/04/03 10:26:09;;;;;;;0.90;0.90;;;13.30;97.30;;;;;;4980739;28;20457;-85
2024/04/03 10:28:36;;;;;;;0.80;0.70;;;13.20;97.30;;;;;;4989270;23;20489;-68
2024/04/03 10:31:03;;;;;;;1.00;0.90;;;13.10;97.30;;;;;;4965810;28;20541;-70
2024/04/03 10:33:31;;;;;;;9.93;1.70;;;13.10;97.30;;;;;;4966319;28;20508;-66
2024/04/03 10:35:59;;;;;;;1.00;0.90;;;13.20;97.30;;;;;;4965227;28;20528;-66
2024/04/03 10:38:26;;;;;;;9.03;2.30;;;13.30;97.30;;;;;;4952750;28;21056;-67
2024/04/03 10:40:52;;;;;;;2.07;1.00;;;13.30;97.30;;;;;;4962451;28;21048;-67
2024/04/03 10:43:19;;;;;;;1.00;0.90;;;13.40;97.30;;;;;;4962136;28;20426;-68
2024/04/03 10:45:50;;;;;;;0.77;0.70;;;13.50;97.30;;;;;;4960325;28;20496;-68
2024/04/03 10:48:17;;;;;;;2.03;1.33;;;13.80;97.30;;;;;;4963699;28;20524;-66
2024/04/03 10:50:44;;;;;;;1.43;1.33;;;14.00;97.30;;;;;;4960560;28;20458;-66
2024/04/03 10:53:13;;;;;;;1.00;0.90;;;14.10;97.30;;;;;;4964440;28;20429;-65
2024/04/03 10:55:41;;;;;;;1.07;0.97;;;14.20;97.30;;;;;;4960152;28;20534;-64
2024/04/03 10:58:09;;;;;;;0.80;0.70;;;14.20;97.30;;;;;;4957175;28;20481;-66
2024/04/03 11:00:40;;;;;;;0.90;0.80;;;14.20;97.30;;;;;;4957925;28;20466;-66
2024/04/03 11:03:09;;;;;;;1.10;0.93;;;14.20;97.30;;;;;;4955103;28;20462;-65
2024/04/03 11:05:38;;;;;;;0.90;0.80;;;14.30;97.30;;;;;;4959878;28;20517;-65
2024/04/03 11:08:09;;;;;;;3.80;1.07;;;14.50;97.30;;;;;;4949946;28;20585;-65
2024/04/03 11:10:37;;;;;;;4.00;1.37;;;14.50;97.30;;;;;;4956793;28;20450;-66
2024/04/03 11:13:09;;;;;;;1.00;0.90;;;14.60;97.30;;;;;;4962882;28;20426;-66
2024/04/03 11:15:37;;;;;;;3.13;1.10;;;14.70;97.30;;;;;;4966215;28;20509;-65
2024/04/03 11:18:04;;;;;;;0.70;0.70;;;14.80;97.30;;;;;;4961123;28;20534;-64
2024/04/03 11:20:32;;;;;;;1.30;1.10;;;14.70;97.30;;;;;;4967704;28;21042;-65
2024/04/03 11:22:59;;;;;;;0.97;0.90;;;14.60;97.30;;;;;;4951222;28;20432;-65
2024/04/03 11:25:29;;;;;;;0.97;0.80;;;14.60;97.30;;;;;;4953367;28;20418;-65
2024/04/03 11:28:00;;;;;;;0.97;0.87;;;14.50;97.30;;;;;;4956264;28;20478;-65
2024/04/03 11:30:26;;;;;;;0.73;0.67;;;14.60;97.30;;;;;;4954740;28;20993;-66
2024/04/03 11:32:57;;;;;;;1.67;1.00;;;14.80;97.30;;;;;;4970657;28;20431;-65
2024/04/03 11:35:28;;;;;;;2.70;1.67;;;14.80;97.30;;;;;;4954026;28;20462;-67
2024/04/03 11:38:01;;;;;;;2.00;0.80;;;14.80;97.30;;;;;;4950802;28;20426;-66
2024/04/03 11:40:27;;;;;;;0.90;0.90;;;14.80;97.30;;;;;;4955951;28;20477;-67
2024/04/03 11:42:53;;;;;;;1.90;0.90;;;14.90;97.30;;;;;;4950237;28;20433;-65
2024/04/03 11:45:27;;;;;;;1.00;0.90;;;14.60;97.30;;;;;;4956024;28;20433;-65
2024/04/03 11:47:58;;;;;;;0.70;0.70;;;14.40;97.30;;;;;;4960012;28;20442;-66
2024/04/03 11:50:25;;;;;;;0.90;0.80;;;14.20;97.30;;;;;;4955644;28;20430;-66
2024/04/03 11:52:52;;;;;;;1.40;1.30;;;14.00;97.30;;;;;;4968107;28;20430;-65
2024/04/03 11:55:17;;;;;;;1.10;1.00;;;13.90;97.30;;;;;;4962221;28;20433;-66
2024/04/03 11:57:43;;;;;;;3.00;2.23;;;13.80;97.30;;;;;;4958775;28;20815;-66
2024/04/03 12:00:11;;;;;;;1.17;1.07;;;13.70;97.30;;;;;;4954329;28;20421;-68
2024/04/03 12:02:38;;;;;;;1.20;0.90;;;13.40;97.30;;;;;;4965943;28;20190;-67
2024/04/03 12:05:05;;;;;;;0.90;0.80;;;13.30;97.30;;;;;;4955312;28;20927;-67
2024/04/03 12:07:35;;;;;;;1.10;1.00;;;13.10;97.30;;;;;;4962670;28;20426;-66
2024/04/03 12:10:07;;;;;;;1.10;1.00;;;13.10;97.30;;;;;;4959664;28;20476;-66
2024/04/03 12:12:37;;;;;;;1.27;1.17;;;13.10;97.30;;;;;;4962734;28;20441;-67
2024/04/03 12:15:07;;;;;;;1.33;0.90;;;13.10;97.30;;;;;;4952512;28;21004;-67
2024/04/03 12:17:35;;;;;;;1.03;0.97;;;13.10;97.30;;;;;;4959713;28;20457;-67
2024/04/03 12:20:18;;;;;;;0.80;0.80;;;13.10;97.30;;;;;;4966034;28;20449;-67
2024/04/03 12:22:49;;;;;;;0.93;0.87;;;13.20;97.30;;;;;;4952218;28;20496;-67
2024/04/03 12:25:20;;;;;;;0.90;0.80;;;13.10;97.30;;;;;;4962093;28;20938;-67
2024/04/03 12:28:11;;;;;;;1.10;1.00;;;13.00;97.30;;;;;;4958145;28;20518;-67
2024/04/03 12:30:39;;;;;;;0.90;0.80;;;13.10;97.30;;;;;;4961039;28;20525;-67
2024/04/03 12:33:09;;;;;;;1.00;1.00;;;13.10;97.30;;;;;;4970226;28;20617;-67
2024/04/03 12:35:43;;;;;;;0.90;0.80;;;13.30;97.30;;;;;;4973148;28;20884;-67
2024/04/03 12:38:15;;;;;;;0.93;0.83;;;13.50;97.30;;;;;;4962354;28;20429;-67
2024/04/03 12:40:44;;;;;;;0.90;0.80;;;13.50;97.30;;;;;;4965025;28;20447;-67
2024/04/03 12:43:15;;;;;;;0.90;0.80;;;13.60;97.30;;;;;;4958409;28;20512;-67
2024/04/03 12:45:58;;;;;;;0.80;0.70;;;13.70;97.30;;;;;;4960637;28;20431;-67
2024/04/03 12:48:28;;;;;;;0.97;0.87;;;13.80;97.30;;;;;;4951616;28;20509;-68
2024/04/03 12:50:58;;;;;;;2.13;1.20;;;13.90;97.30;;;;;;4964344;28;20946;-67
2024/04/03 12:53:27;;;;;;;0.90;0.80;;;14.00;97.30;;;;;;4957479;28;20973;-68
2024/04/03 12:55:54;;;;;;;2.70;2.00;;;13.90;97.30;;;;;;4962969;28;20429;-67
2024/04/03 12:58:23;;;;;;;1.00;0.90;;;14.00;97.30;;;;;;4957174;28;20809;-67
2024/04/03 13:00:50;;;;;;;1.43;1.33;;;14.10;97.30;;;;;;4959695;28;20450;-67
2024/04/03 13:03:15;;;;;;;0.77;0.73;;;14.10;97.30;;;;;;4957249;28;20422;-68
2024/04/03 13:05:48;;;;;;;0.83;0.77;;;14.10;97.30;;;;;;4953933;28;20932;-67
2024/04/03 13:08:17;;;;;;;1.00;0.90;;;14.10;97.30;;;;;;4968018;28;20226;-67
2024/04/03 13:10:44;;;;;;;1.10;0.80;;;14.00;97.30;;;;;;4958038;28;20453;-67
2024/04/03 13:13:12;;;;;;;0.90;0.80;;;13.90;97.30;;;;;;4973564;28;20801;-68
2024/04/03 13:15:39;;;;;;;2.83;1.23;;;13.90;97.30;;;;;;4952683;28;20434;-68
2024/04/03 13:18:05;;;;;;;0.90;0.80;;;13.90;97.30;;;;;;4953626;28;20505;-68
2024/04/03 13:20:33;;;;;;;1.43;1.37;;;13.90;97.30;;;;;;4949327;28;20574;-67
2024/04/03 13:22:59;;;;;;;0.90;0.80;;;13.80;97.30;;;;;;4956239;28;20194;-67
2024/04/03 13:25:30;;;;;;;1.40;1.30;;;13.90;97.30;;;;;;4948447;28;20434;-68
2024/04/03 13:27:58;;;;;;;1.00;0.90;;;14.00;97.30;;;;;;4954500;28;20549;-67
2024/04/03 13:30:25;;;;;;;0.80;0.70;;;14.00;97.30;;;;;;4954496;28;20435;-67
2024/04/03 13:32:52;;;;;;;1.77;1.00;;;14.00;97.30;;;;;;4954969;28;20506;-68
2024/04/03 13:35:19;;;;;;;6.30;1.67;;;14.00;97.30;;;;;;4970454;28;20838;-67
2024/04/03 13:37:48;;;;;;;0.70;0.70;;;14.00;97.30;;;;;;4969916;28;20454;-67
2024/04/03 13:40:15;;;;;;;1.53;1.40;;;13.90;97.30;;;;;;4952414;28;20528;-68
2024/04/03 13:42:43;;;;;;;1.00;0.90;;;14.00;97.30;;;;;;4956316;28;20983;-68
2024/04/03 13:45:10;;;;;;;1.30;1.20;;;14.00;97.20;;;;;;4956707;28;20430;-67
2024/04/03 13:47:36;;;;;;;0.90;0.80;;;14.00;97.30;;;;;;4953652;28;20427;-67
2024/04/03 13:50:08;;;;;;;0.70;0.70;;;14.00;97.30;;;;;;4960538;28;20985;-68
2024/04/03 13:52:34;;;;;;;2.50;2.30;;;14.00;97.30;;;;;;4948387;28;20806;-62
2024/04/03 13:55:00;;;;;;;1.13;1.13;;;14.00;97.30;;;;;;4949775;28;20434;-66
2024/04/03 13:57:26;;;;;;;0.70;0.70;;;13.90;96.50;;;;;;4959714;28;20422;-67
2024/04/03 13:59:54;;;;;;;1.03;1.00;;;13.90;96.50;;;;;;4956088;28;20241;-66
2024/04/03 14:02:20;;;;;;;0.70;0.70;;;14.00;97.20;;;;;;4955960;28;20446;-67
2024/04/03 14:04:48;;;;;;;0.83;0.77;;;13.90;96.10;;;;;;4954441;28;20625;-67
2024/04/03 14:07:15;;;;;;;5.07;1.47;;;14.00;96.60;;;;;;4960112;28;20428;-67
2024/04/03 14:09:42;;;;;;;1.00;0.93;;;14.00;96.80;;;;;;4962939;28;20469;-67
2024/04/03 14:12:07;;;;;;;2.30;1.13;;;14.00;96.60;;;;;;4962964;28;21073;-67
2024/04/03 14:14:34;;;;;;;0.77;0.73;;;14.00;97.00;;;;;;4957142;28;20525;-67
2024/04/03 14:17:03;;;;;;;1.30;1.20;;;14.00;97.00;;;;;;4964872;28;20441;-67
2024/04/03 14:19:30;;;;;;;1.17;1.00;;;14.00;96.70;;;;;;4954442;28;20441;-67
2024/04/03 14:21:56;;;;;;;0.80;0.80;;;14.00;96.20;;;;;;4956684;28;20449;-66
2024/04/03 14:24:22;;;;;;;2.50;1.33;;;14.00;96.10;;;;;;4949867;28;20435;-65
2024/04/03 14:26:49;;;;;;;0.80;0.70;;;14.00;96.30;;;;;;4960927;28;20683;-67
2024/04/03 14:29:15;;;;;;;1.30;1.27;;;14.10;96.10;;;;;;4951861;28;20510;-67
2024/04/03 14:31:42;;;;;;;0.70;0.70;;;14.10;96.50;;;;;;4959902;28;20477;-65
2024/04/03 14:34:09;;;;;;;0.90;0.80;;;14.10;96.40;;;;;;4967160;28;20632;-67
2024/04/03 14:36:35;;;;;;;0.70;0.70;;;14.20;96.30;;;;;;4948916;28;21224;-66
2024/04/03 14:39:02;;;;;;;0.80;0.73;;;14.20;95.70;;;;;;4954473;28;20518;-67
2024/04/03 14:41:28;;;;;;;0.90;0.80;;;14.10;94.50;;;;;;4958800;28;20875;-65
2024/04/03 14:43:55;;;;;;;0.90;0.80;;;14.10;94.70;;;;;;4952073;28;20437;-66
2024/04/03 14:46:23;;;;;;;0.90;0.80;;;14.10;94.50;;;;;;4962882;28;20426;-67
2024/04/03 14:48:49;;;;;;;1.87;1.10;;;14.10;95.40;;;;;;4952475;28;20466;-66
2024/04/03 14:51:16;;;;;;;1.63;1.63;;;14.10;94.40;;;;;;4970836;28;20497;-66
2024/04/03 14:53:43;;;;;;;0.90;0.80;;;14.00;94.20;;;;;;4960127;28;20644;-67
2024/04/03 14:56:10;;;;;;;1.00;1.00;;;14.00;94.60;;;;;;4956243;28;20442;-67
2024/04/03 14:58:36;;;;;;;1.00;0.90;;;14.00;95.50;;;;;;4956152;28;20429;-64
2024/04/03 15:01:02;;;;;;;0.70;0.70;;;13.80;95.10;;;;;;4956756;28;20489;-67
2024/04/03 15:03:29;;;;;;;1.10;1.00;;;13.80;96.00;;;;;;4958841;28;20190;-66
2024/04/03 15:05:55;;;;;;;0.90;0.80;;;13.70;96.60;;;;;;4952214;28;20434;-65
2024/04/03 15:08:21;;;;;;;0.90;0.80;;;13.70;96.00;;;;;;4959092;28;20747;-66
2024/04/03 15:10:50;;;;;;;1.47;1.10;;;13.70;96.00;;;;;;4959242;28;20203;-67
2024/04/03 15:13:18;;;;;;;1.00;0.90;;;13.80;95.50;;;;;;4961042;28;20423;-65
2024/04/03 15:15:47;;;;;;;2.10;1.00;;;13.80;95.00;;;;;;4962117;28;20483;-66
2024/04/03 15:18:15;;;;;;;3.53;1.47;;;13.90;95.10;;;;;;4960565;28;20479;-67
2024/04/03 15:20:43;;;;;;;0.93;0.83;;;13.90;95.30;;;;;;4953803;28;20488;-64
2024/04/03 15:23:09;;;;;;;3.93;1.50;;;13.90;95.30;;;;;;4964892;28;20441;-65
2024/04/03 15:25:35;;;;;;;4.83;1.73;;;13.90;95.00;;;;;;4958758;28;20429;-68
2024/04/03 15:28:02;;;;;;;0.70;0.70;;;13.90;95.10;;;;;;4954598;28;20470;-65
2024/04/03 15:30:29;;;;;;;0.70;0.70;;;13.90;95.40;;;;;;4955524;28;20453;-64
2024/04/03 15:32:57;;;;;;;1.53;1.43;;;13.90;95.10;;;;;;4956470;28;20825;-65
2024/04/03 15:35:25;;;;;;;3.17;2.60;;;13.80;95.50;;;;;;4974562;28;20425;-66
2024/04/03 15:37:56;;;;;;;0.90;0.80;;;13.80;95.90;;;;;;4960720;28;20453;-66
2024/04/03 15:40:23;;;;;;;0.90;0.80;;;13.80;95.70;;;;;;4959968;28;20455;-65
2024/04/03 15:42:52;;;;;;;0.70;0.70;;;13.70;95.80;;;;;;4957111;28;20648;-66
2024/04/03 15:45:19;;;;;;;2.50;1.33;;;13.70;95.80;;;;;;4956947;28;20417;-66
2024/04/03 15:47:46;;;;;;;1.73;1.37;;;13.70;96.20;;;;;;4969374;28;20419;-65
2024/04/03 15:50:12;;;;;;;1.57;1.17;;;13.70;96.20;;;;;;4951312;28;20423;-66
2024/04/03 15:52:40;;;;;;;0.83;0.77;;;13.70;95.50;;;;;;4956916;28;20461;-66
2024/04/03 15:55:06;;;;;;;0.93;0.87;;;13.70;95.90;;;;;;4969873;28;20418;-66
2024/04/03 15:57:32;;;;;;;0.80;0.70;;;13.70;96.60;;;;;;4966061;28;20477;-66
2024/04/03 16:00:00;;;;;;;0.80;0.70;;;13.70;95.80;;;;;;4951385;28;20423;-65
2024/04/03 16:02:26;;;;;;;0.90;0.80;;;13.70;96.10;;;;;;4958448;28;20457;-65
2024/04/03 16:04:52;;;;;;;0.67;0.63;;;13.60;96.20;;;;;;4954414;28;20470;-64
2024/04/03 16:07:18;;;;;;;0.70;0.70;;;13.60;96.30;;;;;;4954233;28;20419;-65
2024/04/03 16:09:43;;;;;;;0.70;0.70;;;13.60;96.10;;;;;;4954082;28;20207;-65
2024/04/03 16:12:11;;;;;;;0.70;0.70;;;13.60;95.90;;;;;;4964015;28;20706;-65
2024/04/03 16:14:38;;;;;;;0.93;0.87;;;13.50;95.50;;;;;;4951987;28;20724;-65
2024/04/03 16:17:04;;;;;;;1.33;1.23;;;13.50;95.80;;;;;;4951801;28;20425;-66
2024/04/03 16:19:30;;;;;;;3.80;1.10;;;13.50;95.80;;;;;;4960453;28;20470;-65
2024/04/03 16:21:57;;;;;;;0.70;0.70;;;13.50;96.00;;;;;;4962547;28;20461;-65
2024/04/03 16:24:24;;;;;;;0.70;0.70;;;13.40;96.10;;;;;;4953973;28;20433;-65
2024/04/03 16:26:50;;;;;;;0.90;0.80;;;13.40;96.00;;;;;;4950546;28;20419;-66
2024/04/03 16:29:16;;;;;;;3.43;1.30;;;13.40;96.80;;;;;;4955115;28;20739;-65
2024/04/03 16:31:41;;;;;;;0.77;0.70;;;13.40;96.60;;;;;;4953533;28;20581;-66
2024/04/03 16:34:07;;;;;;;0.90;0.80;;;13.40;97.10;;;;;;4951486;28;20195;-66
2024/04/03 16:36:33;;;;;;;0.80;0.70;;;13.30;96.60;;;;;;4956503;28;20760;-65
2024/04/03 16:38:58;;;;;;;1.50;0.93;;;13.30;96.20;;;;;;4955564;28;20281;-66
2024/04/03 16:41:24;;;;;;;1.60;1.17;;;13.30;96.30;;;;;;4954707;28;20747;-66
2024/04/03 16:43:49;;;;;;;0.77;0.73;;;13.30;96.60;;;;;;4964913;28;20186;-64
2024/04/03 16:46:15;;;;;;;0.90;0.80;;;13.30;96.60;;;;;;4959115;28;20433;-66
2024/04/03 16:48:41;;;;;;;1.10;1.00;;;13.30;97.00;;;;;;4952827;28;20246;-65
2024/04/03 16:51:06;;;;;;;1.00;0.90;;;13.30;96.90;;;;;;4972008;28;20203;-65